Palo Alto, CA (94305)

6:18 PM PST on February 11, 2016 (GMT -0800)
Stanford University | | Change Station
CLOSE
Current Station
Personal Weather Station
Location: Stanford, CA
Elevation: 80 ft
Nearby Weather Stations

Elev 80 ft 37.42 °N, 122.16 °W | Updated 13 minutes ago

Partly Cloudy
Partly Cloudy
60.5 °F
Feels Like 60.5 °F
N
0.0
Wind Variable Wind from NW
Gusts 0.0 mph

Today
High -- | Low -- °F
--% Chance of Precip.
Yesterday
High -- | Low -- °F
Precip. -- in
Pressure 30.12 in
Visibility 10.0 miles
Clouds Scattered Clouds 15000 ft
Dew Point 51 °F
Humidity 70%
Rainfall 0.00 in
Snow Depth Not available.
7:02 AM 5:43 PM
Waxing Crescent, 16% visible
METAR KPAO 112347Z 01008KT 10SM SCT150 22/10 A3012
Pressure 30.12 in
Visibility 10.0 miles
Clouds Scattered Clouds 15000 ft
Dew Point 51 °F
Humidity 70%
Rainfall 0.00 in
Snow Depth Not available.
7:02 AM 5:43 PM
Waxing Crescent, 16% visible
METAR KPAO 112347Z 01008KT 10SM SCT150 22/10 A3012

10-Day Weather Forecast

Almanac

Astronomy

Feb. 11, 2016 Rise Set
Actual Time
Civil Twilight
Nautical Twilight
Astronomical Twilight
Moon
Length of Visible Light
Length of Day
Tomorrow will be .
, % of the Moon is Illuminated

Today's Extremes

State Highs State Lows

Community

WunderPhotos

Upload Photos

1,892,225 photos uploaded!

WunderBlog® & News

Nearby

Air Quality

  Air Quality AQ Index Pollutant
Not available.

Snow Depth

Station Depth Elevation

Earthquake Activity

City Distance Mag. Time & Date
Minimum magnitude displayed is 2.5.

Coastal Water Temperatures

Place Temperature

Stations

Nearby Weather Stations

Station Location Temp. Windchill Dew Point Humidity Wind Precip. Elev Updated Type
                   

Watches & Warnings

There are currently no watches in effect.